Terminal Aerodrome Forecast
Issued by NWS

Home | Current Version | Previous Version | Text Only | Print | Product List | Glossary Off
Versions: 1 2 3 4 5 6 7 8 9 10 11 12 13 14 15 16 17 18

000
FTUS41 KCLE 290300 AAA
TAFFDY
TAF AMD
KFDY 290352Z 2904/2924 31006KT P6SM BKN040
     FM291100 28004KT P6SM BKN080
     FM291500 28006KT P6SM BKN040
     FM292000 28008KT P6SM VCSH BKN050=

USA.gov is the U.S. government's official web portal to all federal, state and local government web resources and services.